sensor_id;sensor_type;location;lat;lon;timestamp;P1;durP1;ratioP1;P2;durP2;ratioP2
38117;SDS011;23928;47.562;7.508;2023-12-07T00:00:35;13.73;;;7.43;;
38117;SDS011;23928;47.562;7.508;2023-12-07T00:03:00;13.53;;;7.30;;
38117;SDS011;23928;47.562;7.508;2023-12-07T00:05:26;12.20;;;7.83;;
38117;SDS011;23928;47.562;7.508;2023-12-07T00:07:52;13.57;;;7.70;;
38117;SDS011;23928;47.562;7.508;2023-12-07T00:10:17;10.50;;;6.63;;
38117;SDS011;23928;47.562;7.508;2023-12-07T00:12:43;11.47;;;6.70;;
38117;SDS011;23928;47.562;7.508;2023-12-07T00:15:08;9.60;;;6.47;;
38117;SDS011;23928;47.562;7.508;2023-12-07T00:17:34;10.63;;;5.97;;
38117;SDS011;23928;47.562;7.508;2023-12-07T00:20:00;9.83;;;6.00;;
38117;SDS011;23928;47.562;7.508;2023-12-07T00:22:25;11.07;;;5.80;;
38117;SDS011;23928;47.562;7.508;2023-12-07T00:24:53;10.87;;;6.03;;
38117;SDS011;23928;47.562;7.508;2023-12-07T00:27:19;11.83;;;6.63;;
38117;SDS011;23928;47.562;7.508;2023-12-07T00:29:44;9.10;;;5.63;;
38117;SDS011;23928;47.562;7.508;2023-12-07T00:32:10;10.80;;;6.27;;
38117;SDS011;23928;47.562;7.508;2023-12-07T00:34:36;8.80;;;5.47;;
38117;SDS011;23928;47.562;7.508;2023-12-07T00:37:01;11.10;;;5.70;;
38117;SDS011;23928;47.562;7.508;2023-12-07T00:39:28;10.10;;;5.60;;
38117;SDS011;23928;47.562;7.508;2023-12-07T00:41:53;8.50;;;5.37;;
38117;SDS011;23928;47.562;7.508;2023-12-07T00:44:19;9.03;;;5.57;;
38117;SDS011;23928;47.562;7.508;2023-12-07T00:46:45;9.20;;;5.37;;
38117;SDS011;23928;47.562;7.508;2023-12-07T00:49:10;7.67;;;5.37;;
38117;SDS011;23928;47.562;7.508;2023-12-07T00:51:37;8.30;;;5.03;;
38117;SDS011;23928;47.562;7.508;2023-12-07T00:54:02;6.17;;;4.83;;
38117;SDS011;23928;47.562;7.508;2023-12-07T00:56:28;7.03;;;5.10;;
38117;SDS011;23928;47.562;7.508;2023-12-07T00:58:54;5.50;;;4.43;;
38117;SDS011;23928;47.562;7.508;2023-12-07T01:01:19;6.50;;;4.63;;
38117;SDS011;23928;47.562;7.508;2023-12-07T01:03:45;6.67;;;4.73;;
38117;SDS011;23928;47.562;7.508;2023-12-07T01:06:11;8.33;;;5.50;;
38117;SDS011;23928;47.562;7.508;2023-12-07T01:08:36;5.60;;;4.53;;
38117;SDS011;23928;47.562;7.508;2023-12-07T01:11:03;4.97;;;4.20;;
38117;SDS011;23928;47.562;7.508;2023-12-07T01:13:29;6.23;;;4.60;;
38117;SDS011;23928;47.562;7.508;2023-12-07T01:15:55;7.30;;;4.77;;
38117;SDS011;23928;47.562;7.508;2023-12-07T01:18:21;6.10;;;4.60;;
38117;SDS011;23928;47.562;7.508;2023-12-07T01:20:47;7.87;;;4.80;;
38117;SDS011;23928;47.562;7.508;2023-12-07T01:23:13;6.83;;;4.77;;
38117;SDS011;23928;47.562;7.508;2023-12-07T01:25:39;7.67;;;4.87;;
38117;SDS011;23928;47.562;7.508;2023-12-07T01:28:04;5.80;;;4.37;;
38117;SDS011;23928;47.562;7.508;2023-12-07T01:30:30;5.53;;;4.83;;
38117;SDS011;23928;47.562;7.508;2023-12-07T01:32:56;7.90;;;4.83;;
38117;SDS011;23928;47.562;7.508;2023-12-07T01:35:22;6.10;;;4.40;;
38117;SDS011;23928;47.562;7.508;2023-12-07T01:37:47;5.90;;;4.77;;
38117;SDS011;23928;47.562;7.508;2023-12-07T01:40:13;10.67;;;5.03;;
38117;SDS011;23928;47.562;7.508;2023-12-07T01:42:40;6.23;;;4.50;;
38117;SDS011;23928;47.562;7.508;2023-12-07T01:45:06;8.80;;;5.37;;
38117;SDS011;23928;47.562;7.508;2023-12-07T01:47:32;7.37;;;4.57;;
38117;SDS011;23928;47.562;7.508;2023-12-07T01:50:00;9.70;;;5.33;;
38117;SDS011;23928;47.562;7.508;2023-12-07T01:52:29;7.53;;;4.33;;
38117;SDS011;23928;47.562;7.508;2023-12-07T01:54:55;7.00;;;4.53;;
38117;SDS011;23928;47.562;7.508;2023-12-07T01:57:22;8.07;;;5.13;;
38117;SDS011;23928;47.562;7.508;2023-12-07T01:59:48;8.63;;;4.93;;
38117;SDS011;23928;47.562;7.508;2023-12-07T02:02:14;8.10;;;5.30;;
38117;SDS011;23928;47.562;7.508;2023-12-07T02:04:40;8.20;;;5.40;;
38117;SDS011;23928;47.562;7.508;2023-12-07T02:07:06;10.43;;;5.07;;
38117;SDS011;23928;47.562;7.508;2023-12-07T02:09:32;9.47;;;5.07;;
38117;SDS011;23928;47.562;7.508;2023-12-07T02:11:58;8.63;;;5.27;;
38117;SDS011;23928;47.562;7.508;2023-12-07T02:14:25;7.53;;;5.10;;
38117;SDS011;23928;47.562;7.508;2023-12-07T02:16:54;8.43;;;5.17;;
38117;SDS011;23928;47.562;7.508;2023-12-07T02:19:40;7.57;;;4.70;;
38117;SDS011;23928;47.562;7.508;2023-12-07T02:22:18;8.10;;;4.60;;
38117;SDS011;23928;47.562;7.508;2023-12-07T02:25:13;8.73;;;4.90;;
38117;SDS011;23928;47.562;7.508;2023-12-07T02:27:40;9.20;;;5.47;;
38117;SDS011;23928;47.562;7.508;2023-12-07T02:30:07;10.63;;;5.77;;
38117;SDS011;23928;47.562;7.508;2023-12-07T02:32:35;13.50;;;6.47;;
38117;SDS011;23928;47.562;7.508;2023-12-07T02:35:04;8.60;;;5.03;;
38117;SDS011;23928;47.562;7.508;2023-12-07T02:37:35;9.60;;;5.37;;
38117;SDS011;23928;47.562;7.508;2023-12-07T02:40:06;11.20;;;5.80;;
38117;SDS011;23928;47.562;7.508;2023-12-07T02:42:37;10.00;;;5.73;;
38117;SDS011;23928;47.562;7.508;2023-12-07T02:45:05;10.27;;;5.90;;
38117;SDS011;23928;47.562;7.508;2023-12-07T02:47:32;11.27;;;6.13;;
38117;SDS011;23928;47.562;7.508;2023-12-07T02:49:58;12.93;;;6.23;;
38117;SDS011;23928;47.562;7.508;2023-12-07T02:52:24;13.07;;;5.90;;
38117;SDS011;23928;47.562;7.508;2023-12-07T02:54:49;11.87;;;5.57;;
38117;SDS011;23928;47.562;7.508;2023-12-07T02:57:15;14.07;;;5.60;;
38117;SDS011;23928;47.562;7.508;2023-12-07T02:59:41;9.03;;;6.10;;
38117;SDS011;23928;47.562;7.508;2023-12-07T03:02:06;8.40;;;5.60;;
38117;SDS011;23928;47.562;7.508;2023-12-07T03:04:32;13.07;;;5.40;;
38117;SDS011;23928;47.562;7.508;2023-12-07T03:06:58;9.50;;;5.53;;
38117;SDS011;23928;47.562;7.508;2023-12-07T03:09:24;9.67;;;5.23;;
38117;SDS011;23928;47.562;7.508;2023-12-07T03:11:50;9.53;;;6.17;;
38117;SDS011;23928;47.562;7.508;2023-12-07T03:14:15;8.67;;;5.70;;
38117;SDS011;23928;47.562;7.508;2023-12-07T03:16:41;7.90;;;5.40;;
38117;SDS011;23928;47.562;7.508;2023-12-07T03:19:07;10.40;;;5.90;;
38117;SDS011;23928;47.562;7.508;2023-12-07T03:21:32;25.10;;;6.10;;
38117;SDS011;23928;47.562;7.508;2023-12-07T03:23:58;8.00;;;5.27;;
38117;SDS011;23928;47.562;7.508;2023-12-07T03:26:23;7.27;;;4.93;;
38117;SDS011;23928;47.562;7.508;2023-12-07T03:28:49;8.43;;;5.10;;
38117;SDS011;23928;47.562;7.508;2023-12-07T03:31:14;9.83;;;5.00;;
38117;SDS011;23928;47.562;7.508;2023-12-07T03:33:43;8.53;;;5.10;;
38117;SDS011;23928;47.562;7.508;2023-12-07T03:36:12;7.20;;;5.53;;
38117;SDS011;23928;47.562;7.508;2023-12-07T03:38:38;11.90;;;6.03;;
38117;SDS011;23928;47.562;7.508;2023-12-07T03:41:03;16.57;;;9.13;;
38117;SDS011;23928;47.562;7.508;2023-12-07T03:43:29;18.43;;;8.10;;
38117;SDS011;23928;47.562;7.508;2023-12-07T03:45:55;26.43;;;8.40;;
38117;SDS011;23928;47.562;7.508;2023-12-07T03:48:20;17.67;;;8.83;;
38117;SDS011;23928;47.562;7.508;2023-12-07T03:50:46;18.43;;;9.50;;
38117;SDS011;23928;47.562;7.508;2023-12-07T03:53:11;16.87;;;8.77;;
38117;SDS011;23928;47.562;7.508;2023-12-07T03:55:37;20.10;;;9.30;;
38117;SDS011;23928;47.562;7.508;2023-12-07T03:58:03;18.80;;;10.63;;
38117;SDS011;23928;47.562;7.508;2023-12-07T04:00:29;32.23;;;10.90;;
38117;SDS011;23928;47.562;7.508;2023-12-07T04:02:57;37.60;;;10.73;;
38117;SDS011;23928;47.562;7.508;2023-12-07T04:05:23;32.87;;;10.30;;
38117;SDS011;23928;47.562;7.508;2023-12-07T04:07:48;22.67;;;10.70;;
38117;SDS011;23928;47.562;7.508;2023-12-07T04:10:14;46.13;;;11.90;;
38117;SDS011;23928;47.562;7.508;2023-12-07T04:12:40;29.13;;;12.47;;
38117;SDS011;23928;47.562;7.508;2023-12-07T04:15:06;21.97;;;11.00;;
38117;SDS011;23928;47.562;7.508;2023-12-07T04:17:32;24.60;;;12.50;;
38117;SDS011;23928;47.562;7.508;2023-12-07T04:19:58;24.70;;;11.87;;
38117;SDS011;23928;47.562;7.508;2023-12-07T04:22:24;35.83;;;12.60;;
38117;SDS011;23928;47.562;7.508;2023-12-07T04:24:49;28.60;;;12.67;;
38117;SDS011;23928;47.562;7.508;2023-12-07T04:27:15;24.37;;;11.50;;
38117;SDS011;23928;47.562;7.508;2023-12-07T04:29:41;23.67;;;12.50;;
38117;SDS011;23928;47.562;7.508;2023-12-07T04:32:07;25.27;;;13.50;;
38117;SDS011;23928;47.562;7.508;2023-12-07T04:34:33;33.77;;;13.43;;
38117;SDS011;23928;47.562;7.508;2023-12-07T04:36:59;27.23;;;13.57;;
38117;SDS011;23928;47.562;7.508;2023-12-07T04:39:24;24.33;;;12.60;;
38117;SDS011;23928;47.562;7.508;2023-12-07T04:41:50;35.13;;;13.87;;
38117;SDS011;23928;47.562;7.508;2023-12-07T04:44:16;26.33;;;13.07;;
38117;SDS011;23928;47.562;7.508;2023-12-07T04:46:42;28.10;;;14.70;;
38117;SDS011;23928;47.562;7.508;2023-12-07T04:49:08;26.80;;;14.30;;
38117;SDS011;23928;47.562;7.508;2023-12-07T04:51:33;25.30;;;13.40;;
38117;SDS011;23928;47.562;7.508;2023-12-07T04:53:59;24.77;;;12.17;;
38117;SDS011;23928;47.562;7.508;2023-12-07T04:56:25;22.33;;;11.97;;
38117;SDS011;23928;47.562;7.508;2023-12-07T04:58:50;21.93;;;12.23;;
38117;SDS011;23928;47.562;7.508;2023-12-07T05:01:16;22.23;;;12.07;;
38117;SDS011;23928;47.562;7.508;2023-12-07T05:03:43;21.33;;;10.70;;
38117;SDS011;23928;47.562;7.508;2023-12-07T05:06:09;21.20;;;11.47;;
38117;SDS011;23928;47.562;7.508;2023-12-07T05:08:35;20.57;;;11.37;;
38117;SDS011;23928;47.562;7.508;2023-12-07T05:11:01;24.67;;;12.90;;
38117;SDS011;23928;47.562;7.508;2023-12-07T05:13:26;23.83;;;12.63;;
38117;SDS011;23928;47.562;7.508;2023-12-07T05:15:52;23.53;;;13.10;;
38117;SDS011;23928;47.562;7.508;2023-12-07T05:18:17;23.83;;;12.30;;
38117;SDS011;23928;47.562;7.508;2023-12-07T05:20:43;22.13;;;13.03;;
38117;SDS011;23928;47.562;7.508;2023-12-07T05:23:09;23.63;;;13.27;;
38117;SDS011;23928;47.562;7.508;2023-12-07T05:25:34;23.07;;;13.43;;
38117;SDS011;23928;47.562;7.508;2023-12-07T05:28:00;22.47;;;13.07;;
38117;SDS011;23928;47.562;7.508;2023-12-07T05:30:26;23.00;;;13.03;;
38117;SDS011;23928;47.562;7.508;2023-12-07T05:32:52;22.90;;;13.33;;
38117;SDS011;23928;47.562;7.508;2023-12-07T05:35:18;21.90;;;12.83;;
38117;SDS011;23928;47.562;7.508;2023-12-07T05:37:45;21.60;;;12.07;;
38117;SDS011;23928;47.562;7.508;2023-12-07T05:40:11;20.60;;;11.67;;
38117;SDS011;23928;47.562;7.508;2023-12-07T05:42:41;21.87;;;12.30;;
38117;SDS011;23928;47.562;7.508;2023-12-07T05:45:06;24.63;;;13.00;;
38117;SDS011;23928;47.562;7.508;2023-12-07T05:47:32;23.17;;;12.87;;
38117;SDS011;23928;47.562;7.508;2023-12-07T05:49:58;23.17;;;13.03;;
38117;SDS011;23928;47.562;7.508;2023-12-07T05:52:25;22.97;;;13.13;;
38117;SDS011;23928;47.562;7.508;2023-12-07T05:54:50;24.53;;;13.50;;
38117;SDS011;23928;47.562;7.508;2023-12-07T05:57:16;25.70;;;13.87;;
38117;SDS011;23928;47.562;7.508;2023-12-07T05:59:42;22.73;;;13.13;;
38117;SDS011;23928;47.562;7.508;2023-12-07T06:02:08;27.83;;;14.20;;
38117;SDS011;23928;47.562;7.508;2023-12-07T06:04:34;23.37;;;13.07;;
38117;SDS011;23928;47.562;7.508;2023-12-07T06:06:59;22.47;;;13.10;;
38117;SDS011;23928;47.562;7.508;2023-12-07T06:09:25;24.40;;;13.23;;
38117;SDS011;23928;47.562;7.508;2023-12-07T06:11:50;24.80;;;13.07;;
38117;SDS011;23928;47.562;7.508;2023-12-07T06:14:16;19.50;;;11.33;;
38117;SDS011;23928;47.562;7.508;2023-12-07T06:16:42;21.80;;;12.70;;
38117;SDS011;23928;47.562;7.508;2023-12-07T06:19:07;26.97;;;13.73;;
38117;SDS011;23928;47.562;7.508;2023-12-07T06:21:33;22.70;;;12.67;;
38117;SDS011;23928;47.562;7.508;2023-12-07T06:23:58;22.60;;;12.53;;
38117;SDS011;23928;47.562;7.508;2023-12-07T06:26:24;26.63;;;13.27;;
38117;SDS011;23928;47.562;7.508;2023-12-07T06:28:50;25.10;;;13.63;;
38117;SDS011;23928;47.562;7.508;2023-12-07T06:31:16;23.97;;;13.27;;
38117;SDS011;23928;47.562;7.508;2023-12-07T06:33:46;21.70;;;12.53;;
38117;SDS011;23928;47.562;7.508;2023-12-07T06:36:17;21.83;;;11.70;;
38117;SDS011;23928;47.562;7.508;2023-12-07T06:38:44;23.60;;;13.20;;
38117;SDS011;23928;47.562;7.508;2023-12-07T06:41:10;29.87;;;16.77;;
38117;SDS011;23928;47.562;7.508;2023-12-07T06:43:35;28.83;;;18.10;;
38117;SDS011;23928;47.562;7.508;2023-12-07T06:46:01;28.17;;;15.83;;
38117;SDS011;23928;47.562;7.508;2023-12-07T06:48:26;25.63;;;15.07;;
38117;SDS011;23928;47.562;7.508;2023-12-07T06:50:52;27.67;;;15.40;;
38117;SDS011;23928;47.562;7.508;2023-12-07T06:53:17;22.47;;;13.07;;
38117;SDS011;23928;47.562;7.508;2023-12-07T06:55:43;25.67;;;14.47;;
38117;SDS011;23928;47.562;7.508;2023-12-07T06:58:09;20.57;;;12.63;;
38117;SDS011;23928;47.562;7.508;2023-12-07T07:00:35;22.57;;;13.77;;
38117;SDS011;23928;47.562;7.508;2023-12-07T07:03:01;24.03;;;14.53;;
38117;SDS011;23928;47.562;7.508;2023-12-07T07:05:27;22.53;;;13.17;;
38117;SDS011;23928;47.562;7.508;2023-12-07T07:07:53;22.93;;;13.07;;
38117;SDS011;23928;47.562;7.508;2023-12-07T07:10:20;23.03;;;12.77;;
38117;SDS011;23928;47.562;7.508;2023-12-07T07:12:46;22.37;;;12.80;;
38117;SDS011;23928;47.562;7.508;2023-12-07T07:15:12;24.57;;;13.73;;
38117;SDS011;23928;47.562;7.508;2023-12-07T07:17:37;22.57;;;12.70;;
38117;SDS011;23928;47.562;7.508;2023-12-07T07:20:03;23.70;;;13.97;;
38117;SDS011;23928;47.562;7.508;2023-12-07T07:22:29;26.23;;;14.67;;
38117;SDS011;23928;47.562;7.508;2023-12-07T07:24:55;23.20;;;13.77;;
38117;SDS011;23928;47.562;7.508;2023-12-07T07:27:21;22.90;;;13.07;;
38117;SDS011;23928;47.562;7.508;2023-12-07T07:29:46;22.23;;;13.40;;
38117;SDS011;23928;47.562;7.508;2023-12-07T07:32:12;23.73;;;13.07;;
38117;SDS011;23928;47.562;7.508;2023-12-07T07:34:37;23.43;;;13.03;;
38117;SDS011;23928;47.562;7.508;2023-12-07T07:37:04;21.93;;;12.70;;
38117;SDS011;23928;47.562;7.508;2023-12-07T07:39:31;21.23;;;12.90;;
38117;SDS011;23928;47.562;7.508;2023-12-07T07:41:57;20.40;;;12.23;;
38117;SDS011;23928;47.562;7.508;2023-12-07T07:44:23;21.57;;;12.53;;
38117;SDS011;23928;47.562;7.508;2023-12-07T07:46:48;20.60;;;12.40;;
38117;SDS011;23928;47.562;7.508;2023-12-07T07:49:14;20.97;;;12.33;;
38117;SDS011;23928;47.562;7.508;2023-12-07T07:51:39;19.57;;;11.43;;
38117;SDS011;23928;47.562;7.508;2023-12-07T07:54:05;16.93;;;9.90;;
38117;SDS011;23928;47.562;7.508;2023-12-07T07:56:31;17.40;;;10.30;;
38117;SDS011;23928;47.562;7.508;2023-12-07T07:58:56;16.53;;;9.07;;
38117;SDS011;23928;47.562;7.508;2023-12-07T08:01:25;15.63;;;9.47;;
38117;SDS011;23928;47.562;7.508;2023-12-07T08:03:51;16.70;;;9.90;;
38117;SDS011;23928;47.562;7.508;2023-12-07T08:06:16;19.03;;;9.80;;
38117;SDS011;23928;47.562;7.508;2023-12-07T08:08:42;12.70;;;9.27;;
38117;SDS011;23928;47.562;7.508;2023-12-07T08:11:08;16.53;;;9.63;;
38117;SDS011;23928;47.562;7.508;2023-12-07T08:13:33;14.77;;;8.70;;
38117;SDS011;23928;47.562;7.508;2023-12-07T08:15:59;15.67;;;8.83;;
38117;SDS011;23928;47.562;7.508;2023-12-07T08:18:24;13.50;;;8.57;;
38117;SDS011;23928;47.562;7.508;2023-12-07T08:20:51;14.17;;;8.60;;
38117;SDS011;23928;47.562;7.508;2023-12-07T08:23:16;14.03;;;8.80;;
38117;SDS011;23928;47.562;7.508;2023-12-07T08:25:42;15.23;;;8.60;;
38117;SDS011;23928;47.562;7.508;2023-12-07T08:28:08;14.83;;;9.07;;
38117;SDS011;23928;47.562;7.508;2023-12-07T08:30:34;19.60;;;9.93;;
38117;SDS011;23928;47.562;7.508;2023-12-07T08:33:01;18.43;;;9.70;;
38117;SDS011;23928;47.562;7.508;2023-12-07T08:35:26;16.80;;;9.83;;
38117;SDS011;23928;47.562;7.508;2023-12-07T08:37:52;18.07;;;10.80;;
38117;SDS011;23928;47.562;7.508;2023-12-07T08:40:18;18.07;;;9.77;;
38117;SDS011;23928;47.562;7.508;2023-12-07T08:42:44;19.10;;;11.73;;
38117;SDS011;23928;47.562;7.508;2023-12-07T08:45:11;15.53;;;9.63;;
38117;SDS011;23928;47.562;7.508;2023-12-07T08:47:38;18.73;;;11.43;;
38117;SDS011;23928;47.562;7.508;2023-12-07T08:50:04;17.73;;;10.43;;
38117;SDS011;23928;47.562;7.508;2023-12-07T08:52:32;15.13;;;9.60;;
38117;SDS011;23928;47.562;7.508;2023-12-07T08:54:58;17.97;;;11.43;;
38117;SDS011;23928;47.562;7.508;2023-12-07T08:57:24;17.77;;;11.00;;
38117;SDS011;23928;47.562;7.508;2023-12-07T08:59:49;20.33;;;11.67;;
38117;SDS011;23928;47.562;7.508;2023-12-07T09:02:15;18.00;;;10.63;;
38117;SDS011;23928;47.562;7.508;2023-12-07T09:04:41;17.73;;;11.43;;
38117;SDS011;23928;47.562;7.508;2023-12-07T09:07:06;17.83;;;10.97;;
38117;SDS011;23928;47.562;7.508;2023-12-07T09:09:32;19.57;;;11.07;;
38117;SDS011;23928;47.562;7.508;2023-12-07T09:11:57;21.00;;;11.30;;
38117;SDS011;23928;47.562;7.508;2023-12-07T09:14:23;17.17;;;10.83;;
38117;SDS011;23928;47.562;7.508;2023-12-07T09:16:52;23.63;;;11.53;;
38117;SDS011;23928;47.562;7.508;2023-12-07T09:19:18;16.97;;;10.80;;
38117;SDS011;23928;47.562;7.508;2023-12-07T09:21:44;19.73;;;11.13;;
38117;SDS011;23928;47.562;7.508;2023-12-07T09:24:09;18.57;;;10.10;;
38117;SDS011;23928;47.562;7.508;2023-12-07T09:26:35;16.90;;;10.90;;
38117;SDS011;23928;47.562;7.508;2023-12-07T09:29:02;15.97;;;10.70;;
38117;SDS011;23928;47.562;7.508;2023-12-07T09:31:27;16.50;;;10.40;;
38117;SDS011;23928;47.562;7.508;2023-12-07T09:33:53;14.27;;;9.93;;
38117;SDS011;23928;47.562;7.508;2023-12-07T09:36:19;15.77;;;10.00;;
38117;SDS011;23928;47.562;7.508;2023-12-07T09:38:46;15.43;;;10.27;;
38117;SDS011;23928;47.562;7.508;2023-12-07T09:41:12;17.47;;;10.20;;
38117;SDS011;23928;47.562;7.508;2023-12-07T09:43:38;15.63;;;10.13;;
38117;SDS011;23928;47.562;7.508;2023-12-07T09:46:04;16.57;;;10.30;;
38117;SDS011;23928;47.562;7.508;2023-12-07T09:48:31;14.73;;;9.60;;
38117;SDS011;23928;47.562;7.508;2023-12-07T09:50:57;17.93;;;10.43;;
38117;SDS011;23928;47.562;7.508;2023-12-07T09:53:25;15.43;;;10.37;;
38117;SDS011;23928;47.562;7.508;2023-12-07T09:55:54;13.77;;;8.93;;
38117;SDS011;23928;47.562;7.508;2023-12-07T09:58:19;17.10;;;10.03;;
38117;SDS011;23928;47.562;7.508;2023-12-07T10:00:46;15.40;;;9.70;;
38117;SDS011;23928;47.562;7.508;2023-12-07T10:03:19;13.87;;;9.00;;
38117;SDS011;23928;47.562;7.508;2023-12-07T10:05:53;15.27;;;9.10;;
38117;SDS011;23928;47.562;7.508;2023-12-07T10:08:27;13.53;;;9.10;;
38117;SDS011;23928;47.562;7.508;2023-12-07T10:11:04;13.47;;;8.60;;
38117;SDS011;23928;47.562;7.508;2023-12-07T10:13:34;14.03;;;9.00;;
38117;SDS011;23928;47.562;7.508;2023-12-07T10:16:11;14.33;;;9.30;;
38117;SDS011;23928;47.562;7.508;2023-12-07T10:18:38;14.07;;;9.57;;
38117;SDS011;23928;47.562;7.508;2023-12-07T10:21:05;13.67;;;9.27;;
38117;SDS011;23928;47.562;7.508;2023-12-07T10:23:35;13.87;;;9.10;;
38117;SDS011;23928;47.562;7.508;2023-12-07T10:26:01;14.60;;;8.93;;
38117;SDS011;23928;47.562;7.508;2023-12-07T10:28:27;12.10;;;8.40;;
38117;SDS011;23928;47.562;7.508;2023-12-07T10:30:53;13.50;;;8.60;;
38117;SDS011;23928;47.562;7.508;2023-12-07T10:33:19;12.40;;;8.67;;
38117;SDS011;23928;47.562;7.508;2023-12-07T10:35:46;17.47;;;9.47;;
38117;SDS011;23928;47.562;7.508;2023-12-07T10:38:13;12.87;;;8.80;;
38117;SDS011;23928;47.562;7.508;2023-12-07T10:40:39;14.23;;;9.37;;
38117;SDS011;23928;47.562;7.508;2023-12-07T10:43:06;13.93;;;9.40;;
38117;SDS011;23928;47.562;7.508;2023-12-07T10:45:33;15.80;;;9.87;;
38117;SDS011;23928;47.562;7.508;2023-12-07T10:48:05;15.07;;;9.70;;
38117;SDS011;23928;47.562;7.508;2023-12-07T10:50:36;13.93;;;8.97;;
38117;SDS011;23928;47.562;7.508;2023-12-07T10:53:27;15.43;;;9.13;;
38117;SDS011;23928;47.562;7.508;2023-12-07T10:56:10;11.87;;;8.53;;
38117;SDS011;23928;47.562;7.508;2023-12-07T10:58:38;13.60;;;8.77;;
38117;SDS011;23928;47.562;7.508;2023-12-07T11:01:07;13.67;;;9.13;;
38117;SDS011;23928;47.562;7.508;2023-12-07T11:03:34;12.50;;;8.37;;
38117;SDS011;23928;47.562;7.508;2023-12-07T11:06:02;12.80;;;8.10;;
38117;SDS011;23928;47.562;7.508;2023-12-07T11:08:39;12.47;;;8.20;;
38117;SDS011;23928;47.562;7.508;2023-12-07T11:11:10;14.80;;;9.07;;
38117;SDS011;23928;47.562;7.508;2023-12-07T11:13:47;13.33;;;8.77;;
38117;SDS011;23928;47.562;7.508;2023-12-07T11:16:37;11.03;;;7.73;;
38117;SDS011;23928;47.562;7.508;2023-12-07T11:22:01;12.43;;;8.30;;
38117;SDS011;23928;47.562;7.508;2023-12-07T11:24:28;15.10;;;9.43;;
38117;SDS011;23928;47.562;7.508;2023-12-07T11:26:55;12.90;;;8.83;;
38117;SDS011;23928;47.562;7.508;2023-12-07T11:29:21;18.57;;;9.50;;
38117;SDS011;23928;47.562;7.508;2023-12-07T11:31:49;15.30;;;9.10;;
38117;SDS011;23928;47.562;7.508;2023-12-07T11:34:34;16.07;;;9.70;;
38117;SDS011;23928;47.562;7.508;2023-12-07T11:37:04;16.87;;;9.37;;
38117;SDS011;23928;47.562;7.508;2023-12-07T11:39:34;13.10;;;8.23;;
38117;SDS011;23928;47.562;7.508;2023-12-07T11:42:11;15.70;;;8.97;;
38117;SDS011;23928;47.562;7.508;2023-12-07T11:44:37;14.03;;;8.60;;
38117;SDS011;23928;47.562;7.508;2023-12-07T11:47:04;14.83;;;8.63;;
38117;SDS011;23928;47.562;7.508;2023-12-07T11:49:30;15.77;;;9.13;;
38117;SDS011;23928;47.562;7.508;2023-12-07T11:51:59;11.87;;;7.43;;
38117;SDS011;23928;47.562;7.508;2023-12-07T11:54:26;11.77;;;7.27;;
38117;SDS011;23928;47.562;7.508;2023-12-07T11:56:53;11.03;;;7.13;;
38117;SDS011;23928;47.562;7.508;2023-12-07T11:59:19;12.20;;;7.70;;
38117;SDS011;23928;47.562;7.508;2023-12-07T12:01:48;10.60;;;7.10;;
38117;SDS011;23928;47.562;7.508;2023-12-07T12:04:14;11.10;;;6.77;;
38117;SDS011;23928;47.562;7.508;2023-12-07T12:06:43;12.17;;;7.77;;
38117;SDS011;23928;47.562;7.508;2023-12-07T12:09:11;11.97;;;7.53;;
38117;SDS011;23928;47.562;7.508;2023-12-07T12:11:49;12.23;;;7.60;;
38117;SDS011;23928;47.562;7.508;2023-12-07T12:14:17;14.67;;;7.50;;
38117;SDS011;23928;47.562;7.508;2023-12-07T12:16:45;11.97;;;7.17;;
38117;SDS011;23928;47.562;7.508;2023-12-07T12:19:11;11.87;;;7.27;;
38117;SDS011;23928;47.562;7.508;2023-12-07T12:21:39;10.43;;;7.37;;
38117;SDS011;23928;47.562;7.508;2023-12-07T12:24:06;11.13;;;6.90;;
38117;SDS011;23928;47.562;7.508;2023-12-07T12:26:35;13.33;;;8.00;;
38117;SDS011;23928;47.562;7.508;2023-12-07T12:29:03;11.17;;;7.30;;
38117;SDS011;23928;47.562;7.508;2023-12-07T12:31:29;12.07;;;7.70;;
38117;SDS011;23928;47.562;7.508;2023-12-07T12:33:55;32.70;;;17.57;;
38117;SDS011;23928;47.562;7.508;2023-12-07T12:36:21;35.23;;;17.23;;
38117;SDS011;23928;47.562;7.508;2023-12-07T12:38:51;41.50;;;19.87;;
38117;SDS011;23928;47.562;7.508;2023-12-07T12:41:20;62.60;;;25.50;;
38117;SDS011;23928;47.562;7.508;2023-12-07T12:43:49;211.93;;;90.13;;
38117;SDS011;23928;47.562;7.508;2023-12-07T12:46:16;193.30;;;94.20;;
38117;SDS011;23928;47.562;7.508;2023-12-07T12:48:55;70.70;;;37.40;;
38117;SDS011;23928;47.562;7.508;2023-12-07T12:51:25;30.63;;;18.97;;
38117;SDS011;23928;47.562;7.508;2023-12-07T12:53:58;49.70;;;28.13;;
38117;SDS011;23928;47.562;7.508;2023-12-07T12:56:24;46.93;;;25.60;;
38117;SDS011;23928;47.562;7.508;2023-12-07T12:58:51;24.40;;;13.93;;
38117;SDS011;23928;47.562;7.508;2023-12-07T13:01:21;26.70;;;13.67;;
38117;SDS011;23928;47.562;7.508;2023-12-07T13:03:47;24.30;;;13.83;;
38117;SDS011;23928;47.562;7.508;2023-12-07T13:06:13;21.97;;;13.13;;
38117;SDS011;23928;47.562;7.508;2023-12-07T13:08:40;29.77;;;15.13;;
38117;SDS011;23928;47.562;7.508;2023-12-07T13:11:08;25.83;;;12.80;;
38117;SDS011;23928;47.562;7.508;2023-12-07T13:13:34;14.50;;;8.70;;
38117;SDS011;23928;47.562;7.508;2023-12-07T13:16:00;31.37;;;15.83;;
38117;SDS011;23928;47.562;7.508;2023-12-07T13:18:25;24.47;;;14.30;;
38117;SDS011;23928;47.562;7.508;2023-12-07T13:20:51;14.17;;;8.73;;
38117;SDS011;23928;47.562;7.508;2023-12-07T13:23:16;14.07;;;8.57;;
38117;SDS011;23928;47.562;7.508;2023-12-07T13:25:42;14.27;;;7.43;;
38117;SDS011;23928;47.562;7.508;2023-12-07T13:28:08;14.00;;;8.17;;
38117;SDS011;23928;47.562;7.508;2023-12-07T13:30:36;16.47;;;9.07;;
38117;SDS011;23928;47.562;7.508;2023-12-07T13:33:02;13.77;;;8.10;;
38117;SDS011;23928;47.562;7.508;2023-12-07T13:35:29;12.87;;;7.97;;
38117;SDS011;23928;47.562;7.508;2023-12-07T13:37:54;10.77;;;7.33;;
38117;SDS011;23928;47.562;7.508;2023-12-07T13:40:20;11.03;;;7.00;;
38117;SDS011;23928;47.562;7.508;2023-12-07T13:42:46;12.70;;;6.70;;
38117;SDS011;23928;47.562;7.508;2023-12-07T13:45:11;12.90;;;7.70;;
38117;SDS011;23928;47.562;7.508;2023-12-07T13:47:37;16.00;;;9.60;;
38117;SDS011;23928;47.562;7.508;2023-12-07T13:50:03;15.43;;;9.43;;
38117;SDS011;23928;47.562;7.508;2023-12-07T13:52:30;18.60;;;9.73;;
38117;SDS011;23928;47.562;7.508;2023-12-07T13:54:59;20.80;;;10.53;;
38117;SDS011;23928;47.562;7.508;2023-12-07T13:57:24;45.57;;;20.70;;
38117;SDS011;23928;47.562;7.508;2023-12-07T13:59:50;92.77;;;39.23;;
38117;SDS011;23928;47.562;7.508;2023-12-07T14:02:17;17.87;;;11.03;;
38117;SDS011;23928;47.562;7.508;2023-12-07T14:04:43;17.47;;;9.87;;
38117;SDS011;23928;47.562;7.508;2023-12-07T14:07:13;16.10;;;9.63;;
38117;SDS011;23928;47.562;7.508;2023-12-07T14:09:41;15.97;;;8.67;;
38117;SDS011;23928;47.562;7.508;2023-12-07T14:12:11;18.00;;;9.70;;
38117;SDS011;23928;47.562;7.508;2023-12-07T14:14:56;15.70;;;9.40;;
38117;SDS011;23928;47.562;7.508;2023-12-07T14:17:22;15.83;;;9.63;;
38117;SDS011;23928;47.562;7.508;2023-12-07T14:19:47;15.73;;;8.77;;
38117;SDS011;23928;47.562;7.508;2023-12-07T14:22:18;15.53;;;9.40;;
38117;SDS011;23928;47.562;7.508;2023-12-07T14:24:44;15.83;;;8.53;;
38117;SDS011;23928;47.562;7.508;2023-12-07T14:27:11;17.57;;;8.90;;
38117;SDS011;23928;47.562;7.508;2023-12-07T14:29:37;17.40;;;9.43;;
38117;SDS011;23928;47.562;7.508;2023-12-07T14:32:02;17.13;;;9.30;;